createdAt,value
2023-03-18T00:01:12.113Z,2.21
2023-03-18T00:03:40.465Z,2.19
2023-03-18T00:06:15.484Z,2.17
2023-03-18T00:08:47.271Z,2.15
2023-03-18T00:11:19.102Z,2.14
2023-03-18T00:13:49.179Z,2.12
2023-03-18T00:16:17.860Z,2.09
2023-03-18T00:18:46.238Z,2.07
2023-03-18T00:21:14.587Z,2.05
2023-03-18T00:23:44.137Z,2.02
2023-03-18T00:26:12.645Z,2.00
2023-03-18T00:28:41.384Z,1.97
2023-03-18T00:31:13.688Z,1.97
2023-03-18T00:33:45.239Z,1.95
2023-03-18T00:36:15.012Z,1.94
2023-03-18T00:38:47.323Z,1.92
2023-03-18T00:41:18.551Z,1.90
2023-03-18T00:43:52.888Z,1.87
2023-03-18T00:46:24.589Z,1.84
2023-03-18T00:48:58.481Z,1.81
2023-03-18T00:51:31.476Z,1.79
2023-03-18T00:54:02.807Z,1.77
2023-03-18T00:56:33.278Z,1.76
2023-03-18T00:59:02.397Z,1.76
2023-03-18T01:01:31.548Z,1.76
2023-03-18T01:04:02.106Z,1.76
2023-03-18T01:06:34.022Z,1.76
2023-03-18T01:09:05.330Z,1.76
2023-03-18T01:11:33.862Z,1.75
2023-03-18T01:14:03.808Z,1.74
2023-03-18T01:16:32.328Z,1.73
2023-03-18T01:19:00.698Z,1.72
2023-03-18T01:21:29.042Z,1.70
2023-03-18T01:23:57.373Z,1.68
2023-03-18T01:26:26.299Z,1.68
2023-03-18T01:28:54.855Z,1.65
2023-03-18T01:31:25.477Z,1.63
2023-03-18T01:33:54.771Z,1.61
2023-03-18T01:36:23.194Z,1.59
2023-03-18T01:38:52.052Z,1.56
2023-03-18T01:41:20.370Z,1.55
2023-03-18T01:43:48.760Z,1.52
2023-03-18T01:46:45.068Z,1.50
2023-03-18T01:49:31.619Z,1.48
2023-03-18T01:52:08.418Z,1.45
2023-03-18T01:55:19.322Z,1.43
2023-03-18T01:57:49.733Z,1.41
2023-03-18T02:00:20.287Z,1.39
2023-03-18T02:02:52.882Z,1.39
2023-03-18T02:07:54.238Z,1.35
2023-03-18T02:10:30.131Z,1.32
2023-03-18T02:13:07.024Z,1.31
2023-03-18T02:16:00.860Z,1.30
2023-03-18T02:18:48.894Z,1.29
2023-03-18T02:21:41.979Z,1.28
2023-03-18T02:24:57.729Z,1.28
2023-03-18T02:27:32.203Z,1.26
2023-03-18T02:30:08.595Z,1.24
2023-03-18T02:32:38.444Z,1.23
2023-03-18T02:35:10.516Z,1.23
2023-03-18T02:37:39.213Z,1.23
2023-03-18T02:40:29.793Z,1.23
2023-03-18T02:43:18.607Z,1.24
2023-03-18T02:45:58.024Z,1.23
2023-03-18T02:48:34.538Z,1.25
2023-03-18T02:51:05.218Z,1.25
2023-03-18T02:53:35.308Z,1.27
2023-03-18T02:56:05.078Z,1.28
2023-03-18T02:58:33.949Z,1.28
2023-03-18T03:01:03.541Z,1.28
2023-03-18T03:03:32.233Z,1.29
2023-03-18T03:06:02.120Z,1.29
2023-03-18T03:08:30.827Z,1.28
2023-03-18T03:10:59.278Z,1.28
2023-03-18T03:13:27.873Z,1.28
2023-03-18T03:15:56.396Z,1.28
2023-03-18T03:18:25.530Z,1.28
2023-03-18T03:20:54.221Z,1.26
2023-03-18T03:23:23.153Z,1.26
2023-03-18T03:25:51.556Z,1.27
2023-03-18T03:28:21.396Z,1.25
2023-03-18T03:30:50.220Z,1.24
2023-03-18T03:33:18.647Z,1.23
2023-03-18T03:35:47.419Z,1.23
2023-03-18T03:38:16.243Z,1.22
2023-03-18T03:40:45.735Z,1.21
2023-03-18T03:43:15.810Z,1.19
2023-03-18T03:45:45.087Z,1.18
2023-03-18T03:48:13.882Z,1.16
2023-03-18T03:50:42.368Z,1.16
2023-03-18T03:53:10.750Z,1.14
2023-03-18T03:55:39.370Z,1.13
2023-03-18T03:58:07.715Z,1.12
2023-03-18T04:00:36.357Z,1.11
2023-03-18T04:03:04.826Z,1.10
2023-03-18T04:05:33.334Z,1.10
2023-03-18T04:08:01.749Z,1.10
2023-03-18T04:10:30.606Z,1.10
2023-03-18T04:12:59.212Z,1.10
2023-03-18T04:15:27.720Z,1.12
2023-03-18T04:17:56.153Z,1.11
2023-03-18T04:20:24.455Z,1.10
2023-03-18T04:22:53.122Z,1.10
2023-03-18T04:25:22.384Z,1.09
2023-03-18T04:27:52.748Z,1.08
2023-03-18T04:30:23.416Z,1.06
2023-03-18T04:32:52.570Z,1.04
2023-03-18T04:35:23.286Z,1.02
2023-03-18T04:37:51.646Z,1.02
2023-03-18T04:40:20.884Z,1.03
2023-03-18T04:42:49.386Z,1.05
2023-03-18T04:45:19.114Z,1.08
2023-03-18T04:47:47.574Z,1.12
2023-03-18T04:50:17.703Z,1.16
2023-03-18T04:52:46.497Z,1.20
2023-03-18T04:55:20.682Z,1.24
2023-03-18T04:57:50.711Z,1.28
2023-03-18T05:00:23.784Z,1.33
2023-03-18T05:02:52.217Z,1.38
2023-03-18T05:05:21.567Z,1.42
2023-03-18T05:07:49.893Z,1.46
2023-03-18T05:10:19.362Z,1.51
2023-03-18T05:12:48.651Z,1.54
2023-03-18T05:15:17.154Z,1.59
2023-03-18T05:17:45.925Z,1.64
2023-03-18T05:20:14.693Z,1.70
2023-03-18T05:22:43.155Z,1.77
2023-03-18T05:25:12.698Z,1.83
2023-03-18T05:27:42.056Z,1.91
2023-03-18T05:30:12.573Z,1.98
2023-03-18T05:32:42.423Z,2.07
2023-03-18T05:35:11.431Z,2.15
2023-03-18T05:37:39.951Z,2.22
2023-03-18T05:40:11.705Z,2.32
2023-03-18T05:42:55.292Z,2.42
2023-03-18T05:45:25.464Z,2.52
2023-03-18T05:47:53.854Z,2.61
2023-03-18T05:50:35.617Z,2.72
2023-03-18T05:53:05.865Z,2.82
2023-03-18T05:55:35.953Z,2.92
2023-03-18T05:58:04.442Z,3.02
2023-03-18T06:00:33.264Z,3.13
2023-03-18T06:03:02.479Z,3.23
2023-03-18T06:05:31.572Z,3.35
2023-03-18T06:08:01.353Z,3.47
2023-03-18T06:10:31.263Z,3.58
2023-03-18T06:13:00.438Z,3.71
2023-03-18T06:15:29.021Z,3.84
2023-03-18T06:17:57.599Z,3.96
2023-03-18T06:20:26.266Z,4.08
2023-03-18T06:22:54.684Z,4.19
2023-03-18T06:25:24.059Z,4.29
2023-03-18T06:27:52.948Z,4.40
2023-03-18T06:30:22.200Z,4.51
2023-03-18T06:32:50.854Z,4.61
2023-03-18T06:35:19.369Z,4.71
2023-03-18T06:37:48.647Z,4.79
2023-03-18T06:40:17.501Z,4.89
2023-03-18T06:42:46.488Z,4.98
2023-03-18T06:45:16.046Z,5.09
2023-03-18T06:47:46.634Z,5.18
2023-03-18T06:50:16.191Z,5.26
2023-03-18T06:52:45.045Z,5.39
2023-03-18T06:55:14.880Z,5.51
2023-03-18T06:57:43.684Z,5.65
2023-03-18T07:00:13.701Z,5.77
2023-03-18T07:02:42.048Z,5.90
2023-03-18T07:05:10.945Z,6.04
2023-03-18T07:07:40.231Z,6.16
2023-03-18T07:10:18.496Z,6.26
2023-03-18T07:12:48.186Z,6.38
2023-03-18T07:15:17.172Z,6.47
2023-03-18T07:17:45.593Z,6.58
2023-03-18T07:20:15.400Z,6.68
2023-03-18T07:22:45.534Z,6.79
2023-03-18T07:25:14.443Z,6.92
2023-03-18T07:27:42.801Z,7.03
2023-03-18T07:30:12.037Z,7.15
2023-03-18T07:32:40.462Z,7.27
2023-03-18T07:35:10.986Z,7.39
2023-03-18T07:37:40.315Z,7.51
2023-03-18T07:40:11.760Z,7.65
2023-03-18T07:42:40.242Z,7.75
2023-03-18T07:45:09.739Z,7.85
2023-03-18T07:47:39.428Z,7.97
2023-03-18T07:50:08.745Z,8.08
2023-03-18T07:52:37.540Z,8.20
2023-03-18T07:55:06.320Z,8.31
2023-03-18T07:57:36.755Z,8.39
2023-03-18T08:00:07.864Z,8.49
2023-03-18T08:02:37.097Z,8.61
2023-03-18T08:05:07.385Z,8.71
2023-03-18T08:07:36.389Z,8.82
2023-03-18T08:10:05.891Z,8.93
2023-03-18T08:12:49.343Z,9.04
2023-03-18T08:15:22.686Z,9.17
2023-03-18T08:17:52.726Z,9.28
2023-03-18T08:20:21.722Z,9.38
2023-03-18T08:22:50.348Z,9.50
2023-03-18T08:25:18.844Z,9.64
2023-03-18T08:27:47.209Z,9.79
2023-03-18T08:30:16.612Z,9.95
2023-03-18T08:32:45.281Z,10.12
2023-03-18T08:35:14.424Z,10.33
2023-03-18T08:37:42.882Z,10.51
2023-03-18T08:40:12.277Z,10.71
2023-03-18T08:42:40.625Z,10.88
2023-03-18T08:45:09.798Z,11.08
2023-03-18T08:47:39.523Z,11.27
2023-03-18T08:50:09.167Z,11.45
2023-03-18T08:52:41.338Z,11.63
2023-03-18T09:03:13.702Z,12.36
2023-03-18T09:05:42.634Z,12.53
2023-03-18T09:08:10.983Z,12.76
2023-03-18T09:10:39.822Z,13.02
2023-03-18T09:13:08.313Z,13.23
2023-03-18T09:15:36.854Z,13.41
2023-03-18T09:18:11.696Z,13.57
2023-03-18T09:20:41.641Z,13.74
2023-03-18T09:23:12.588Z,13.90
2023-03-18T09:25:44.305Z,14.04
2023-03-18T09:28:14.280Z,14.15
2023-03-18T09:30:42.736Z,14.25
2023-03-18T09:33:11.687Z,14.33
2023-03-18T09:35:40.361Z,14.46
2023-03-18T09:38:15.024Z,14.59
2023-03-18T09:41:10.777Z,14.76
2023-03-18T09:44:30.112Z,15.00
2023-03-18T09:47:58.646Z,15.29
2023-03-18T09:50:39.412Z,15.55
2023-03-18T09:53:24.559Z,15.67
2023-03-18T09:55:59.391Z,15.84
2023-03-18T09:58:56.375Z,15.98
2023-03-18T10:01:28.069Z,16.23
2023-03-18T10:04:16.213Z,16.40
2023-03-18T10:06:45.782Z,16.55
2023-03-18T10:09:39.606Z,16.67
2023-03-18T10:12:38.398Z,16.80
2023-03-18T10:15:27.956Z,16.97
2023-03-18T10:18:26.520Z,17.12
2023-03-18T10:21:16.772Z,17.40
2023-03-18T10:24:07.636Z,17.77
2023-03-18T10:26:48.884Z,18.16
2023-03-18T10:29:38.573Z,18.51
2023-03-18T10:32:15.059Z,18.99
2023-03-18T10:35:24.039Z,19.38
2023-03-18T10:38:17.894Z,19.73
2023-03-18T10:40:50.288Z,19.95
2023-03-18T10:43:25.243Z,20.11
2023-03-18T10:46:05.971Z,20.26
2023-03-18T10:48:40.912Z,20.32
2023-03-18T10:51:24.798Z,20.44
2023-03-18T10:54:39.310Z,20.53
2023-03-18T10:57:19.664Z,20.54
2023-03-18T10:59:52.192Z,20.60
2023-03-18T11:02:35.344Z,20.73
2023-03-18T11:05:26.929Z,20.75
2023-03-18T11:08:07.438Z,20.75
2023-03-18T11:10:48.812Z,20.68
2023-03-18T11:13:19.950Z,20.48
2023-03-18T11:15:56.556Z,20.36
2023-03-18T11:18:27.347Z,20.16
2023-03-18T11:21:04.750Z,20.04
2023-03-18T11:23:56.392Z,19.90
2023-03-18T11:26:30.360Z,19.90
2023-03-18T11:29:10.590Z,19.99
2023-03-18T11:32:44.667Z,20.11
2023-03-18T11:35:32.319Z,20.16
2023-03-18T11:38:06.959Z,20.21
2023-03-18T11:40:35.529Z,20.23
2023-03-18T11:43:16.798Z,20.33
2023-03-18T11:46:07.046Z,20.52
2023-03-18T11:48:39.401Z,20.78
2023-03-18T11:51:45.225Z,21.01
2023-03-18T11:54:25.738Z,21.24
2023-03-18T11:57:22.314Z,21.42
2023-03-18T12:00:02.351Z,21.59
2023-03-18T12:02:58.233Z,21.73
2023-03-18T12:06:13.557Z,21.75
2023-03-18T12:09:05.251Z,21.82
2023-03-18T12:12:31.977Z,21.93
2023-03-18T12:15:19.774Z,22.00
2023-03-18T12:18:25.956Z,22.03
2023-03-18T12:21:04.118Z,22.12
2023-03-18T12:23:44.431Z,22.26
2023-03-18T12:26:26.773Z,22.32
2023-03-18T12:29:52.677Z,22.24
2023-03-18T12:32:50.892Z,22.33
2023-03-18T12:35:39.541Z,22.57
2023-03-18T12:38:11.666Z,22.72
2023-03-18T12:41:06.653Z,22.82
2023-03-18T12:44:03.042Z,22.96
2023-03-18T12:46:42.788Z,23.14
2023-03-18T12:49:28.754Z,23.27
2023-03-18T12:52:36.047Z,23.34
2023-03-18T12:55:31.408Z,23.32
2023-03-18T12:58:10.820Z,23.36
2023-03-18T13:00:52.452Z,23.30
2023-03-18T13:03:33.043Z,23.11
2023-03-18T13:06:26.716Z,22.94
2023-03-18T13:09:35.791Z,22.90
2023-03-18T13:12:29.237Z,22.92
2023-03-18T13:15:01.108Z,22.96
2023-03-18T13:17:38.845Z,23.16
2023-03-18T13:20:33.436Z,23.44
2023-03-18T13:23:31.342Z,23.74
2023-03-18T13:26:29.148Z,23.97
2023-03-18T13:29:04.458Z,24.16
2023-03-18T13:32:17.930Z,24.38
2023-03-18T13:35:50.843Z,24.55
2023-03-18T13:38:46.470Z,24.79
2023-03-18T13:42:02.658Z,25.00
2023-03-18T13:45:02.312Z,25.06
2023-03-18T13:47:34.917Z,25.03
2023-03-18T13:50:20.637Z,25.04
2023-03-18T13:52:50.138Z,24.89
2023-03-18T13:55:39.771Z,24.79
2023-03-18T13:58:28.296Z,24.87
2023-03-18T14:00:57.082Z,24.97
2023-03-18T14:03:33.231Z,25.17
2023-03-18T14:06:09.369Z,25.27
2023-03-18T14:08:39.296Z,25.11
2023-03-18T14:11:40.468Z,25.07
2023-03-18T14:14:57.356Z,25.21
2023-03-18T14:17:38.713Z,25.53
2023-03-18T14:20:19.674Z,25.88
2023-03-18T14:22:52.358Z,26.14
2023-03-18T14:25:31.771Z,26.35
2023-03-18T14:28:21.810Z,26.60
2023-03-18T14:31:14.146Z,26.87
2023-03-18T14:34:04.165Z,27.12
2023-03-18T14:37:29.208Z,27.18
2023-03-18T14:40:17.018Z,27.26
2023-03-18T14:43:03.622Z,27.23
2023-03-18T14:45:37.576Z,27.03
2023-03-18T14:48:21.510Z,26.74
2023-03-18T14:50:52.848Z,26.56
2023-03-18T14:53:30.700Z,26.48
2023-03-18T14:56:00.360Z,26.37
2023-03-18T14:58:28.793Z,26.00
2023-03-18T15:01:14.038Z,25.65
2023-03-18T15:03:47.286Z,25.33
2023-03-18T15:06:25.713Z,24.92
2023-03-18T15:09:14.336Z,24.41
2023-03-18T15:11:46.673Z,23.86
2023-03-18T15:14:26.650Z,23.46
2023-03-18T15:17:14.794Z,23.03
2023-03-18T15:19:44.238Z,22.76
2023-03-18T15:22:26.133Z,22.73
2023-03-18T15:25:01.366Z,22.75
2023-03-18T15:27:36.515Z,22.76
2023-03-18T15:30:07.325Z,22.83
2023-03-18T15:32:49.842Z,22.84
2023-03-18T15:35:26.839Z,22.82
2023-03-18T15:38:04.315Z,22.67
2023-03-18T15:40:36.744Z,22.36
2023-03-18T15:43:19.250Z,21.96
2023-03-18T15:45:59.736Z,21.49
2023-03-18T15:48:29.846Z,20.99
2023-03-18T15:51:05.112Z,20.52
2023-03-18T15:53:47.793Z,20.03
2023-03-18T16:05:52.588Z,18.36
2023-03-18T16:08:22.855Z,17.93
2023-03-18T16:10:56.620Z,17.54
2023-03-18T16:13:29.808Z,17.18
2023-03-18T16:15:58.488Z,16.85
2023-03-18T16:18:27.451Z,16.53
2023-03-18T16:20:57.336Z,16.24
2023-03-18T16:23:25.654Z,15.96
2023-03-18T16:25:55.548Z,15.69
2023-03-18T16:28:28.086Z,15.42
2023-03-18T16:30:57.692Z,15.16
2023-03-18T16:33:26.209Z,14.93
2023-03-18T16:36:01.604Z,14.70
2023-03-18T16:38:31.311Z,14.44
2023-03-18T16:40:59.826Z,14.22
2023-03-18T16:43:31.614Z,13.98
2023-03-18T16:46:05.859Z,13.74
2023-03-18T16:48:34.349Z,13.52
2023-03-18T16:51:04.666Z,13.30
2023-03-18T16:53:39.288Z,13.09
2023-03-18T16:56:19.119Z,12.86
2023-03-18T16:58:47.439Z,12.63
2023-03-18T17:01:19.346Z,12.45
2023-03-18T17:03:48.167Z,12.27
2023-03-18T17:06:16.764Z,12.08
2023-03-18T17:08:45.009Z,11.91
2023-03-18T17:11:18.526Z,11.75
2023-03-18T17:13:47.275Z,11.59
2023-03-18T17:16:22.299Z,11.44
2023-03-18T17:18:50.731Z,11.29
2023-03-18T17:21:19.134Z,11.11
2023-03-18T17:23:47.785Z,10.98
2023-03-18T17:26:20.088Z,10.87
2023-03-18T17:28:50.159Z,10.82
2023-03-18T17:31:20.612Z,10.78
2023-03-18T17:33:48.979Z,10.75
2023-03-18T17:36:18.210Z,10.72
2023-03-18T17:38:46.677Z,10.70
2023-03-18T17:41:20.088Z,10.67
2023-03-18T17:43:48.804Z,10.64
2023-03-18T17:46:17.437Z,10.60
2023-03-18T17:48:46.209Z,10.55
2023-03-18T17:51:24.726Z,10.51
2023-03-18T17:53:59.449Z,10.45
2023-03-18T17:56:28.916Z,10.40
2023-03-18T17:58:57.316Z,10.36
2023-03-18T18:01:29.285Z,10.33
2023-03-18T18:04:00.422Z,10.28
2023-03-18T18:06:29.985Z,10.22
2023-03-18T18:09:01.081Z,10.17
2023-03-18T18:11:38.105Z,10.11
2023-03-18T18:14:23.635Z,10.07
2023-03-18T18:16:53.709Z,10.03
2023-03-18T18:19:22.908Z,9.99
2023-03-18T18:21:52.978Z,9.94
2023-03-18T18:24:33.408Z,9.90
2023-03-18T18:27:02.915Z,9.85
2023-03-18T18:29:33.225Z,9.80
2023-03-18T18:32:04.481Z,9.75
2023-03-18T18:34:32.974Z,9.69
2023-03-18T18:37:02.080Z,9.64
2023-03-18T18:39:30.599Z,9.59
2023-03-18T18:41:59.057Z,9.54
2023-03-18T18:44:28.610Z,9.49
2023-03-18T18:46:57.878Z,9.43
2023-03-18T18:49:26.283Z,9.39
2023-03-18T18:51:57.450Z,9.33
2023-03-18T18:54:25.796Z,9.30
2023-03-18T18:56:55.172Z,9.25
2023-03-18T18:59:33.746Z,9.22
2023-03-18T19:02:03.401Z,9.17
2023-03-18T19:04:31.977Z,9.13
2023-03-18T19:07:03.385Z,9.09
2023-03-18T19:09:31.828Z,9.03
2023-03-18T19:12:00.212Z,8.94
2023-03-18T19:14:29.544Z,8.82
2023-03-18T19:16:59.853Z,8.69
2023-03-18T19:19:34.415Z,8.57
2023-03-18T19:22:03.643Z,8.47
2023-03-18T19:24:38.055Z,8.42
2023-03-18T19:27:23.080Z,8.41
2023-03-18T19:29:54.232Z,8.39
2023-03-18T19:32:23.938Z,8.38
2023-03-18T19:34:54.599Z,8.36
2023-03-18T19:37:32.502Z,8.35
2023-03-18T19:40:12.651Z,8.35
2023-03-18T19:42:41.123Z,8.35
2023-03-18T19:45:14.606Z,8.36
2023-03-18T19:47:45.339Z,8.38
2023-03-18T19:50:19.655Z,8.39
2023-03-18T19:52:48.213Z,8.39
2023-03-18T19:55:17.874Z,8.38
2023-03-18T19:57:48.642Z,8.36
2023-03-18T20:00:24.767Z,8.34
2023-03-18T20:02:54.121Z,8.30
2023-03-18T20:05:25.832Z,8.26
2023-03-18T20:07:54.256Z,8.20
2023-03-18T20:10:22.676Z,8.15
2023-03-18T20:12:51.548Z,8.09
2023-03-18T20:15:25.649Z,8.04
2023-03-18T20:17:54.417Z,7.95
2023-03-18T20:20:27.551Z,7.86
2023-03-18T20:23:03.765Z,7.75
2023-03-18T20:25:41.586Z,7.64
2023-03-18T20:28:23.166Z,7.54
2023-03-18T20:30:56.326Z,7.43
2023-03-18T20:33:25.125Z,7.35
2023-03-18T20:35:54.430Z,7.27
2023-03-18T20:38:38.274Z,7.21
2023-03-18T20:41:07.276Z,7.16
2023-03-18T20:43:35.901Z,7.08
2023-03-18T20:46:04.535Z,6.98
2023-03-18T20:48:32.994Z,6.88
2023-03-18T20:51:02.658Z,6.82
2023-03-18T20:53:31.761Z,6.76
2023-03-18T20:56:00.130Z,6.73
2023-03-18T20:58:28.522Z,6.71
2023-03-18T21:00:57.619Z,6.67
2023-03-18T21:03:31.285Z,6.64
2023-03-18T21:06:06.697Z,6.60
2023-03-18T21:08:34.965Z,6.59
2023-03-18T21:11:03.478Z,6.56
2023-03-18T21:13:39.430Z,6.56
2023-03-18T21:16:14.363Z,6.55
2023-03-18T21:18:46.063Z,6.55
2023-03-18T21:21:34.132Z,6.57
2023-03-18T21:24:14.698Z,6.57
2023-03-18T21:26:54.245Z,6.58
2023-03-18T21:29:29.859Z,6.57
2023-03-18T21:31:58.236Z,6.57
2023-03-18T21:34:26.745Z,6.57
2023-03-18T21:36:55.773Z,6.56
2023-03-18T21:39:24.125Z,6.55
2023-03-18T21:41:52.545Z,6.52
2023-03-18T21:44:20.891Z,6.50
2023-03-18T21:46:49.221Z,6.44
2023-03-18T21:49:17.536Z,6.35
2023-03-18T21:51:46.628Z,6.25
2023-03-18T21:54:19.976Z,6.14
2023-03-18T21:56:48.418Z,6.04
2023-03-18T21:59:16.737Z,5.95
2023-03-18T22:01:45.309Z,5.85
2023-03-18T22:04:13.754Z,5.76
2023-03-18T22:06:42.193Z,5.68
2023-03-18T22:09:10.633Z,5.64
2023-03-18T22:11:39.156Z,5.58
2023-03-18T22:14:13.855Z,5.53
2023-03-18T22:16:42.236Z,5.47
2023-03-18T22:19:10.542Z,5.43
2023-03-18T22:21:38.951Z,5.37
2023-03-18T22:24:14.223Z,5.32
2023-03-18T22:26:42.533Z,5.28
2023-03-18T22:29:10.846Z,5.24
2023-03-18T22:31:40.818Z,5.21
2023-03-18T22:34:23.077Z,5.18
2023-03-18T22:36:51.387Z,5.15
2023-03-18T22:39:19.732Z,5.11
2023-03-18T22:41:48.045Z,5.06
2023-03-18T22:44:23.537Z,5.02
2023-03-18T22:46:51.943Z,4.99
2023-03-18T22:49:20.772Z,4.95
2023-03-18T22:51:49.098Z,4.94
2023-03-18T22:54:19.126Z,4.92
2023-03-18T22:56:47.634Z,4.90
2023-03-18T22:59:15.997Z,4.88
2023-03-18T23:01:44.828Z,4.86
2023-03-18T23:04:13.232Z,4.84
2023-03-18T23:06:41.717Z,4.83
2023-03-18T23:09:10.104Z,4.82
2023-03-18T23:11:38.634Z,4.82
2023-03-18T23:14:09.799Z,4.81
2023-03-18T23:16:38.225Z,4.82
2023-03-18T23:19:06.703Z,4.82
2023-03-18T23:21:35.459Z,4.82
2023-03-18T23:24:04.206Z,4.82
2023-03-18T23:26:32.665Z,4.82
2023-03-18T23:29:00.988Z,4.80
2023-03-18T23:31:29.386Z,4.78
2023-03-18T23:33:57.804Z,4.76
2023-03-18T23:36:26.590Z,4.74
2023-03-18T23:38:54.914Z,4.71
2023-03-18T23:41:23.196Z,4.69
2023-03-18T23:43:51.587Z,4.66
2023-03-18T23:46:19.934Z,4.64
2023-03-18T23:48:48.355Z,4.62
2023-03-18T23:51:16.701Z,4.58
2023-03-18T23:53:45.019Z,4.55
2023-03-18T23:56:14.089Z,4.52
2023-03-18T23:58:42.541Z,4.47
